createdAt,value
2023-10-07T00:01:47.047Z,15.77
2023-10-07T00:04:19.094Z,13.35
2023-10-07T00:06:56.705Z,11.52
2023-10-07T00:09:27.567Z,14.60
2023-10-07T00:12:03.485Z,13.88
2023-10-07T00:14:32.564Z,12.55
2023-10-07T00:16:59.799Z,13.40
2023-10-07T00:19:29.730Z,11.00
2023-10-07T00:22:00.854Z,11.10
2023-10-07T00:24:36.594Z,13.75
2023-10-07T00:27:03.872Z,14.13
2023-10-07T00:29:44.403Z,14.23
2023-10-07T00:32:16.879Z,13.70
2023-10-07T00:34:57.470Z,13.23
2023-10-07T00:37:39.770Z,13.25
2023-10-07T00:40:30.999Z,11.57
2023-10-07T00:43:08.173Z,14.38
2023-10-07T00:45:35.695Z,14.30
2023-10-07T00:48:12.541Z,12.80
2023-10-07T00:50:46.720Z,11.20
2023-10-07T00:53:31.145Z,14.10
2023-10-07T00:56:00.856Z,10.45
2023-10-07T00:58:36.834Z,14.07
2023-10-07T01:01:10.481Z,11.13
2023-10-07T01:04:01.734Z,13.88
2023-10-07T01:06:45.221Z,10.93
2023-10-07T01:09:16.931Z,12.23
2023-10-07T01:11:47.507Z,14.18
2023-10-07T01:14:15.063Z,14.32
2023-10-07T01:16:44.740Z,13.40
2023-10-07T01:19:15.130Z,13.75
2023-10-07T01:22:00.172Z,14.70
2023-10-07T01:24:39.602Z,12.10
2023-10-07T01:27:39.140Z,12.00
2023-10-07T01:30:20.752Z,14.35
2023-10-07T01:33:11.644Z,11.60
2023-10-07T01:35:54.999Z,10.88
2023-10-07T01:38:21.944Z,14.02
2023-10-07T01:40:57.381Z,11.18
2023-10-07T01:43:26.287Z,14.88
2023-10-07T01:45:56.314Z,14.25
2023-10-07T01:48:31.791Z,13.77
2023-10-07T01:51:03.619Z,14.88
2023-10-07T01:53:40.478Z,14.77
2023-10-07T01:56:08.790Z,13.88
2023-10-07T01:58:46.396Z,12.63
2023-10-07T02:01:17.997Z,14.40
2023-10-07T02:03:47.718Z,13.18
2023-10-07T02:06:19.573Z,12.80
2023-10-07T02:08:47.720Z,15.73
2023-10-07T02:11:20.050Z,13.43
2023-10-07T02:13:49.999Z,15.23
2023-10-07T02:16:18.355Z,10.65
2023-10-07T02:18:53.065Z,15.10
2023-10-07T02:21:22.300Z,15.38
2023-10-07T02:23:56.409Z,14.55
2023-10-07T02:26:29.202Z,15.75
2023-10-07T02:29:07.912Z,12.02
2023-10-07T02:31:44.439Z,16.17
2023-10-07T02:34:23.026Z,15.05
2023-10-07T02:37:06.283Z,14.80
2023-10-07T02:39:49.924Z,15.13
2023-10-07T02:42:23.218Z,15.18
2023-10-07T02:44:56.540Z,15.65
2023-10-07T02:47:34.411Z,16.30
2023-10-07T02:50:10.100Z,16.80
2023-10-07T02:52:38.062Z,13.77
2023-10-07T02:55:20.762Z,16.05
2023-10-07T02:57:57.168Z,15.93
2023-10-07T03:00:40.175Z,16.40
2023-10-07T03:03:32.781Z,15.48
2023-10-07T03:08:50.511Z,13.13
2023-10-07T03:11:23.815Z,16.45
2023-10-07T03:14:05.030Z,16.33
2023-10-07T03:16:37.496Z,16.08
2023-10-07T03:19:04.899Z,16.92
2023-10-07T03:21:42.857Z,16.60
2023-10-07T03:24:36.718Z,12.23
2023-10-07T03:27:25.868Z,16.45
2023-10-07T03:30:03.129Z,16.00
2023-10-07T03:32:33.789Z,12.20
2023-10-07T03:35:01.100Z,16.45
2023-10-07T03:37:35.450Z,15.95
2023-10-07T03:40:26.327Z,10.73
2023-10-07T03:43:02.641Z,15.32
2023-10-07T03:45:33.076Z,15.63
2023-10-07T03:48:12.231Z,16.45
2023-10-07T03:50:39.347Z,16.75
2023-10-07T03:53:07.005Z,15.95
2023-10-07T03:55:42.854Z,16.33
2023-10-07T03:58:10.089Z,16.90
2023-10-07T04:00:37.443Z,13.68
2023-10-07T04:03:10.862Z,16.85
2023-10-07T04:05:43.444Z,17.38
2023-10-07T04:08:15.206Z,17.95
2023-10-07T04:10:47.072Z,18.55
2023-10-07T04:13:22.958Z,16.92
2023-10-07T04:15:53.038Z,17.90
2023-10-07T04:18:30.854Z,18.23
2023-10-07T04:21:01.393Z,17.48
2023-10-07T04:23:34.630Z,17.88
2023-10-07T04:26:10.518Z,18.38
2023-10-07T04:28:41.092Z,18.02
2023-10-07T04:31:14.498Z,17.52
2023-10-07T04:33:45.325Z,17.30
2023-10-07T04:36:15.337Z,17.75
2023-10-07T04:38:55.500Z,18.10
2023-10-07T04:41:23.814Z,17.65
2023-10-07T04:44:16.382Z,17.73
2023-10-07T04:49:37.427Z,17.48
2023-10-07T04:52:08.427Z,12.45
2023-10-07T04:54:37.330Z,18.13
2023-10-07T04:57:11.778Z,17.67
2023-10-07T04:59:47.423Z,15.02
2023-10-07T05:02:17.394Z,14.93
2023-10-07T05:04:52.228Z,16.70
2023-10-07T05:07:26.083Z,12.73
2023-10-07T05:09:54.390Z,19.75
2023-10-07T05:12:21.598Z,14.70
2023-10-07T05:14:49.494Z,22.65
2023-10-07T05:17:18.231Z,19.00
2023-10-07T05:19:47.761Z,13.45
2023-10-07T05:22:17.828Z,15.95
2023-10-07T05:24:53.166Z,14.20
2023-10-07T05:27:20.365Z,12.85
2023-10-07T05:29:48.300Z,18.40
2023-10-07T05:32:15.492Z,19.73
2023-10-07T05:34:43.206Z,11.63
2023-10-07T05:37:13.342Z,16.52
2023-10-07T05:39:42.922Z,18.65
2023-10-07T05:42:13.498Z,17.73
2023-10-07T05:44:41.921Z,18.90
2023-10-07T05:47:11.213Z,16.45
2023-10-07T05:49:39.651Z,19.98
2023-10-07T05:52:07.093Z,13.85
2023-10-07T05:54:35.101Z,18.70
2023-10-07T05:57:08.459Z,18.60
2023-10-07T05:59:36.173Z,18.60
2023-10-07T06:02:08.629Z,18.95
2023-10-07T06:04:36.481Z,12.73
2023-10-07T06:07:10.261Z,15.98
2023-10-07T06:09:43.437Z,15.07
2023-10-07T06:12:10.743Z,10.50
2023-10-07T06:14:37.800Z,19.10
2023-10-07T06:17:07.954Z,17.83
2023-10-07T06:19:39.420Z,18.65
2023-10-07T06:22:13.516Z,18.75
2023-10-07T06:24:42.170Z,11.88
2023-10-07T06:27:13.543Z,11.95
2023-10-07T06:29:50.314Z,11.68
2023-10-07T06:32:42.984Z,12.00
2023-10-07T06:35:19.609Z,18.25
2023-10-07T06:37:48.270Z,18.23
2023-10-07T06:40:31.868Z,16.48
2023-10-07T06:43:05.752Z,12.40
2023-10-07T06:45:40.487Z,12.23
2023-10-07T06:48:10.915Z,19.13
2023-10-07T06:50:43.009Z,16.65
2023-10-07T06:53:13.396Z,20.08
2023-10-07T06:55:47.448Z,20.77
2023-10-07T06:58:16.154Z,20.27
2023-10-07T07:00:49.479Z,20.98
2023-10-07T07:03:19.717Z,20.08
2023-10-07T07:05:48.116Z,21.13
2023-10-07T07:08:24.398Z,21.42
2023-10-07T07:10:57.961Z,21.17
2023-10-07T07:13:29.069Z,21.02
2023-10-07T07:16:07.961Z,19.58
2023-10-07T07:18:35.231Z,21.50
2023-10-07T07:21:18.485Z,22.08
2023-10-07T07:23:57.498Z,20.23
2023-10-07T07:26:32.304Z,22.20
2023-10-07T07:29:00.339Z,19.88
2023-10-07T07:31:35.976Z,22.13
2023-10-07T07:34:09.948Z,21.30
2023-10-07T07:36:40.843Z,21.10
2023-10-07T07:39:19.243Z,22.08
2023-10-07T07:41:59.548Z,18.75
2023-10-07T07:44:38.432Z,20.05
2023-10-07T07:47:05.900Z,20.60
2023-10-07T07:49:33.970Z,11.40
2023-10-07T07:52:05.163Z,19.20
2023-10-07T07:54:33.439Z,15.50
2023-10-07T07:57:06.092Z,18.90
2023-10-07T07:59:34.505Z,18.85
2023-10-07T08:02:14.767Z,15.50
2023-10-07T08:04:52.286Z,18.00
2023-10-07T08:07:29.343Z,19.13
2023-10-07T08:09:59.776Z,18.02
2023-10-07T08:12:37.944Z,13.85
2023-10-07T08:15:15.553Z,16.85
2023-10-07T08:17:46.718Z,18.27
2023-10-07T08:20:14.789Z,16.50
2023-10-07T08:22:53.142Z,14.65
2023-10-07T08:25:47.821Z,18.08
2023-10-07T08:28:49.345Z,20.88
2023-10-07T08:31:27.566Z,20.08
2023-10-07T08:34:06.484Z,19.88
2023-10-07T08:36:38.509Z,14.25
2023-10-07T08:39:10.982Z,23.75
2023-10-07T08:41:53.428Z,25.45
2023-10-07T08:44:33.268Z,23.13
2023-10-07T08:47:08.443Z,21.85
2023-10-07T08:49:38.080Z,17.33
2023-10-07T08:52:20.420Z,17.77
2023-10-07T08:54:48.703Z,19.13
2023-10-07T08:57:23.905Z,20.40
2023-10-07T09:00:01.419Z,15.43
2023-10-07T09:02:32.001Z,20.98
2023-10-07T09:05:00.740Z,14.98
2023-10-07T09:07:38.477Z,18.98
2023-10-07T09:10:17.308Z,23.58
2023-10-07T09:12:48.105Z,22.20
2023-10-07T09:15:38.837Z,21.50
2023-10-07T09:18:11.841Z,20.80
2023-10-07T09:20:46.700Z,20.45
2023-10-07T09:23:27.673Z,20.20
2023-10-07T09:26:07.518Z,20.90
2023-10-07T09:28:39.826Z,20.75
2023-10-07T09:31:11.148Z,15.67
2023-10-07T09:33:38.217Z,20.43
2023-10-07T09:36:26.567Z,20.85
2023-10-07T09:39:08.911Z,23.13
2023-10-07T09:42:04.858Z,22.27
2023-10-07T09:44:33.365Z,22.30
2023-10-07T09:47:14.863Z,18.08
2023-10-07T09:49:42.896Z,20.30
2023-10-07T09:52:19.384Z,22.17
2023-10-07T09:55:20.287Z,23.35
2023-10-07T09:58:19.452Z,19.05
2023-10-07T10:01:39.720Z,21.80
2023-10-07T10:04:29.919Z,17.15
2023-10-07T10:07:27.476Z,16.48
2023-10-07T10:10:17.773Z,21.77
2023-10-07T10:12:55.131Z,18.30
2023-10-07T10:15:37.752Z,14.95
2023-10-07T10:18:31.452Z,22.67
2023-10-07T10:21:06.248Z,16.92
2023-10-07T10:23:34.579Z,18.33
2023-10-07T10:26:23.614Z,15.48
2023-10-07T10:29:18.479Z,13.70
2023-10-07T10:32:01.030Z,23.48
2023-10-07T10:34:28.694Z,14.88
2023-10-07T10:37:00.688Z,18.48
2023-10-07T10:39:41.061Z,22.35
2023-10-07T10:42:16.501Z,14.00
2023-10-07T10:44:49.708Z,19.05
2023-10-07T10:47:22.056Z,20.40
2023-10-07T10:49:56.582Z,18.05
2023-10-07T10:52:24.208Z,16.30
2023-10-07T10:54:54.395Z,16.85
2023-10-07T10:57:25.875Z,17.05
2023-10-07T10:59:53.374Z,13.15
2023-10-07T11:02:26.666Z,14.77
2023-10-07T11:04:57.525Z,21.55
2023-10-07T11:07:26.735Z,22.45
2023-10-07T11:09:54.778Z,22.13
2023-10-07T11:12:28.798Z,20.88
2023-10-07T11:15:09.455Z,22.98
2023-10-07T11:17:43.300Z,22.02
2023-10-07T11:20:14.510Z,21.25
2023-10-07T11:22:43.866Z,23.60
2023-10-07T11:25:17.744Z,17.50
2023-10-07T11:27:50.720Z,22.63
2023-10-07T11:30:18.020Z,22.70
2023-10-07T11:32:46.017Z,23.30
2023-10-07T11:35:33.391Z,20.38
2023-10-07T11:38:04.377Z,16.05
2023-10-07T11:40:33.022Z,23.98
2023-10-07T11:43:06.154Z,22.08
2023-10-07T11:45:34.281Z,17.35
2023-10-07T11:48:02.111Z,19.80
2023-10-07T11:50:30.762Z,22.35
2023-10-07T11:52:58.611Z,17.42
2023-10-07T11:55:25.748Z,21.70
2023-10-07T11:57:52.692Z,16.27
2023-10-07T12:00:30.078Z,22.55
2023-10-07T12:02:59.185Z,15.10
2023-10-07T12:05:29.405Z,21.85
2023-10-07T12:08:02.738Z,21.73
2023-10-07T12:10:38.227Z,18.23
2023-10-07T12:13:16.340Z,21.63
2023-10-07T12:18:20.897Z,21.45
2023-10-07T12:20:47.935Z,14.98
2023-10-07T12:23:15.194Z,18.75
2023-10-07T12:25:43.034Z,16.58
2023-10-07T12:28:10.185Z,20.50
2023-10-07T12:30:37.155Z,20.33
2023-10-07T12:33:04.440Z,19.80
2023-10-07T12:35:33.603Z,16.05
2023-10-07T12:38:01.613Z,18.23
2023-10-07T12:40:31.897Z,22.58
2023-10-07T12:43:07.652Z,14.88
2023-10-07T12:45:38.206Z,14.10
2023-10-07T12:48:06.237Z,15.23
2023-10-07T12:50:35.130Z,14.32
2023-10-07T12:53:05.796Z,22.73
2023-10-07T12:55:45.788Z,19.10
2023-10-07T12:58:17.317Z,19.38
2023-10-07T13:00:44.737Z,16.15
2023-10-07T13:03:14.466Z,15.43
2023-10-07T13:05:44.330Z,17.67
2023-10-07T13:08:17.245Z,19.02
2023-10-07T13:10:44.948Z,18.33
2023-10-07T13:13:15.741Z,19.67
2023-10-07T13:15:44.126Z,13.30
2023-10-07T13:18:11.661Z,14.15
2023-10-07T13:20:40.682Z,16.58
2023-10-07T13:23:07.876Z,15.18
2023-10-07T13:25:38.161Z,17.63
2023-10-07T13:28:09.018Z,16.05
2023-10-07T13:30:37.077Z,18.08
2023-10-07T13:33:06.828Z,16.90
2023-10-07T13:35:39.149Z,16.02
2023-10-07T13:38:06.469Z,17.55
2023-10-07T13:40:39.100Z,13.15
2023-10-07T13:43:08.387Z,21.08
2023-10-07T13:45:35.854Z,17.75
2023-10-07T13:48:05.265Z,17.40
2023-10-07T13:50:32.329Z,17.13
2023-10-07T13:52:59.457Z,15.85
2023-10-07T13:55:35.370Z,15.15
2023-10-07T13:58:02.689Z,15.45
2023-10-07T14:00:36.385Z,14.70
2023-10-07T14:03:07.473Z,14.90
2023-10-07T14:05:38.255Z,13.53
2023-10-07T14:08:18.249Z,12.60
2023-10-07T14:10:53.943Z,12.40
2023-10-07T14:13:39.536Z,14.65
2023-10-07T14:18:43.761Z,13.80
2023-10-07T14:21:18.235Z,12.23
2023-10-07T14:23:45.919Z,13.95
2023-10-07T14:26:15.857Z,11.60
2023-10-07T14:28:49.684Z,13.48
2023-10-07T14:31:22.436Z,12.38
2023-10-07T14:33:50.279Z,14.23
2023-10-07T14:36:19.909Z,13.32
2023-10-07T14:38:47.267Z,11.57
2023-10-07T14:41:15.193Z,11.50
2023-10-07T14:43:42.713Z,12.13
2023-10-07T14:46:12.980Z,14.15
2023-10-07T14:48:47.632Z,13.82
2023-10-07T14:51:15.522Z,13.38
2023-10-07T14:53:42.568Z,14.23
2023-10-07T14:56:18.501Z,14.50
2023-10-07T14:58:49.232Z,14.43
2023-10-07T15:01:27.379Z,12.43
2023-10-07T15:03:56.221Z,11.00
2023-10-07T15:06:24.027Z,12.70
2023-10-07T15:08:52.245Z,13.30
2023-10-07T15:11:20.688Z,13.45
2023-10-07T15:13:51.358Z,11.50
2023-10-07T15:16:19.226Z,11.10
2023-10-07T15:18:48.011Z,13.20
2023-10-07T15:21:16.108Z,13.05
2023-10-07T15:23:43.936Z,12.77
2023-10-07T15:26:13.019Z,11.45
2023-10-07T15:28:41.346Z,12.75
2023-10-07T15:31:10.306Z,11.73
2023-10-07T15:33:57.537Z,12.23
2023-10-07T15:36:25.870Z,13.07
2023-10-07T15:38:53.911Z,12.95
2023-10-07T15:41:23.064Z,11.20
2023-10-07T15:44:00.842Z,11.27
2023-10-07T15:46:28.096Z,13.50
2023-10-07T15:48:59.813Z,11.05
2023-10-07T15:51:27.801Z,11.27
2023-10-07T15:53:57.826Z,10.52
2023-10-07T15:56:25.752Z,13.18
2023-10-07T15:58:53.259Z,10.27
2023-10-07T16:01:20.614Z,10.68
2023-10-07T16:03:48.183Z,10.77
2023-10-07T16:06:16.581Z,10.40
2023-10-07T16:08:57.903Z,12.90
2023-10-07T16:11:32.155Z,13.55
2023-10-07T16:14:02.324Z,10.18
2023-10-07T16:16:38.575Z,11.02
2023-10-07T16:19:08.582Z,13.52
2023-10-07T16:21:40.137Z,11.40
2023-10-07T16:24:15.083Z,10.05
2023-10-07T16:26:44.236Z,13.45
2023-10-07T16:29:18.392Z,11.65
2023-10-07T16:31:45.659Z,12.32
2023-10-07T16:34:13.158Z,10.93
2023-10-07T16:36:40.404Z,12.23
2023-10-07T16:39:11.173Z,10.55
2023-10-07T16:41:38.789Z,11.88
2023-10-07T16:44:13.747Z,10.15
2023-10-07T16:46:49.952Z,13.07
2023-10-07T16:49:16.966Z,12.50
2023-10-07T16:51:51.942Z,12.00
2023-10-07T16:54:24.950Z,12.40
2023-10-07T16:56:51.909Z,11.80
2023-10-07T16:59:19.098Z,12.25
2023-10-07T17:01:47.184Z,12.35
2023-10-07T17:04:14.495Z,13.25
2023-10-07T17:06:42.284Z,9.38
2023-10-07T17:09:11.492Z,9.57
2023-10-07T17:11:39.882Z,11.68
2023-10-07T17:14:10.142Z,8.80
2023-10-07T17:16:37.611Z,11.38
2023-10-07T17:19:04.903Z,10.13
2023-10-07T17:21:32.837Z,12.57
2023-10-07T17:24:01.846Z,12.23
2023-10-07T17:26:28.974Z,13.15
2023-10-07T17:28:56.233Z,12.52
2023-10-07T17:31:24.387Z,12.63
2023-10-07T17:33:51.610Z,13.88
2023-10-07T17:36:20.502Z,13.27
2023-10-07T17:38:47.863Z,13.27
2023-10-07T17:41:23.547Z,12.65
2023-10-07T17:43:50.887Z,14.50
2023-10-07T17:46:17.979Z,14.48
2023-10-07T17:48:46.684Z,14.00
2023-10-07T17:51:13.708Z,14.52
2023-10-07T17:53:45.090Z,10.90
2023-10-07T17:56:15.218Z,16.15
2023-10-07T17:58:44.460Z,15.02
2023-10-07T18:01:11.547Z,15.43
2023-10-07T18:03:39.442Z,15.50
2023-10-07T18:06:07.320Z,17.08
2023-10-07T18:08:45.126Z,16.15
2023-10-07T18:11:18.640Z,15.82
2023-10-07T18:13:48.119Z,16.88
2023-10-07T18:16:16.957Z,16.23
2023-10-07T18:18:44.924Z,16.30
2023-10-07T18:21:12.131Z,14.50
2023-10-07T18:23:40.854Z,14.98
2023-10-07T18:26:08.077Z,15.85
2023-10-07T18:28:40.185Z,15.55
2023-10-07T18:33:38.951Z,15.68
2023-10-07T18:36:10.009Z,15.50
2023-10-07T18:38:37.685Z,17.65
2023-10-07T18:41:10.357Z,16.00
2023-10-07T18:43:39.427Z,13.13
2023-10-07T18:46:13.291Z,15.75
2023-10-07T18:48:41.655Z,15.73
2023-10-07T18:51:15.607Z,18.05
2023-10-07T18:53:47.686Z,17.80
2023-10-07T18:58:42.769Z,17.48
2023-10-07T19:01:12.104Z,17.45
2023-10-07T19:03:39.508Z,14.40
2023-10-07T19:06:07.212Z,13.88
2023-10-07T19:08:34.825Z,16.67
2023-10-07T19:11:07.655Z,17.10
2023-10-07T19:13:44.320Z,41.97
2023-10-07T19:16:19.297Z,62.55
2023-10-07T19:18:46.803Z,101.72
2023-10-07T19:21:20.095Z,352.63
2023-10-07T19:23:48.586Z,408.02
2023-10-07T19:26:17.353Z,436.75
2023-10-07T19:28:48.964Z,408.10
2023-10-07T19:31:19.420Z,357.73
2023-10-07T19:33:52.326Z,314.10
2023-10-07T19:36:19.877Z,302.40
2023-10-07T19:38:47.703Z,136.02
2023-10-07T19:41:15.313Z,84.72
2023-10-07T19:43:42.633Z,87.00
2023-10-07T19:46:09.824Z,71.63
2023-10-07T19:48:40.289Z,64.50
2023-10-07T19:51:07.401Z,45.80
2023-10-07T19:53:41.901Z,40.78
2023-10-07T19:56:09.637Z,35.42
2023-10-07T19:58:38.554Z,35.83
2023-10-07T20:01:11.178Z,38.70
2023-10-07T20:03:39.420Z,47.70
2023-10-07T20:06:13.152Z,75.30
2023-10-07T20:08:44.374Z,34.05
2023-10-07T20:11:11.588Z,65.60
2023-10-07T20:13:44.758Z,51.25
2023-10-07T20:16:17.255Z,38.10
2023-10-07T20:18:46.935Z,37.88
2023-10-07T20:21:16.929Z,37.00
2023-10-07T20:23:48.553Z,33.10
2023-10-07T20:26:17.685Z,29.52
2023-10-07T20:28:45.956Z,29.88
2023-10-07T20:31:17.973Z,45.47
2023-10-07T20:36:18.781Z,29.35
2023-10-07T20:38:47.357Z,26.80
2023-10-07T20:41:17.191Z,23.90
2023-10-07T20:43:45.800Z,24.60
2023-10-07T20:46:13.173Z,20.92
2023-10-07T20:48:44.837Z,22.58
2023-10-07T20:51:25.301Z,21.52
2023-10-07T20:53:53.370Z,22.05
2023-10-07T20:56:22.070Z,20.80
2023-10-07T20:58:52.404Z,20.25
2023-10-07T21:01:21.819Z,24.33
2023-10-07T21:03:51.828Z,24.13
2023-10-07T21:06:22.358Z,25.60
2023-10-07T21:08:53.487Z,27.70
2023-10-07T21:11:25.140Z,20.20
2023-10-07T21:13:57.331Z,19.02
2023-10-07T21:19:03.481Z,24.67
2023-10-07T21:21:31.166Z,18.10
2023-10-07T21:23:58.713Z,18.13
2023-10-07T21:26:29.346Z,19.42
2023-10-07T21:28:58.727Z,17.85
2023-10-07T21:31:35.518Z,18.25
2023-10-07T21:34:04.029Z,19.60
2023-10-07T21:36:33.961Z,18.90
2023-10-07T21:39:14.142Z,16.98
2023-10-07T21:41:53.907Z,16.05
2023-10-07T21:44:35.479Z,16.48
2023-10-07T21:47:24.168Z,17.05
2023-10-07T21:49:56.060Z,17.00
2023-10-07T21:52:26.456Z,16.58
2023-10-07T21:54:54.132Z,16.88
2023-10-07T21:57:21.314Z,16.77
2023-10-07T21:59:48.422Z,16.00
2023-10-07T22:02:19.437Z,16.50
2023-10-07T22:04:52.536Z,16.52
2023-10-07T22:07:21.602Z,17.10
2023-10-07T22:09:54.259Z,17.23
2023-10-07T22:12:22.935Z,16.13
2023-10-07T22:14:51.492Z,15.73
2023-10-07T22:17:20.804Z,20.33
2023-10-07T22:19:48.634Z,18.95
2023-10-07T22:22:19.002Z,18.73
2023-10-07T22:24:46.726Z,14.95
2023-10-07T22:27:23.348Z,16.73
2023-10-07T22:29:55.795Z,14.73
2023-10-07T22:32:27.595Z,16.73
2023-10-07T22:35:16.081Z,15.05
2023-10-07T22:37:53.814Z,16.50
2023-10-07T22:40:25.100Z,16.70
2023-10-07T22:42:56.017Z,16.70
2023-10-07T22:45:43.460Z,16.23
2023-10-07T22:48:21.573Z,17.25
2023-10-07T22:50:54.860Z,16.17
2023-10-07T22:53:28.291Z,16.27
2023-10-07T22:55:59.400Z,16.48
2023-10-07T22:58:35.001Z,15.57
2023-10-07T23:01:09.265Z,15.48
2023-10-07T23:03:37.813Z,17.45
2023-10-07T23:06:18.621Z,15.43
2023-10-07T23:08:54.389Z,16.05
2023-10-07T23:11:41.834Z,16.92
2023-10-07T23:14:27.448Z,16.70
2023-10-07T23:16:55.836Z,16.02
2023-10-07T23:19:25.282Z,17.98
2023-10-07T23:21:52.772Z,17.15
2023-10-07T23:24:55.885Z,15.30
2023-10-07T23:27:24.857Z,13.52
2023-10-07T23:29:56.325Z,17.70
2023-10-07T23:32:24.349Z,13.85
2023-10-07T23:35:17.988Z,15.55
2023-10-07T23:37:52.470Z,16.30
2023-10-07T23:40:32.237Z,14.85
2023-10-07T23:43:11.458Z,14.75
2023-10-07T23:45:48.086Z,14.10
2023-10-07T23:48:20.570Z,13.82
2023-10-07T23:50:51.035Z,14.10
2023-10-07T23:53:26.408Z,15.10
2023-10-07T23:56:14.068Z,14.65
2023-10-07T23:58:51.682Z,13.18
